createdAt,value
2024-02-19T00:01:40.212Z,60.50
2024-02-19T00:04:08.953Z,59.75
2024-02-19T00:06:37.883Z,65.53
2024-02-19T00:09:06.237Z,71.20
2024-02-19T00:11:37.693Z,67.78
2024-02-19T00:14:05.909Z,60.30
2024-02-19T00:16:35.544Z,67.85
2024-02-19T00:19:03.821Z,61.30
2024-02-19T00:21:31.919Z,66.63
2024-02-19T00:24:00.110Z,60.30
2024-02-19T00:26:28.105Z,62.55
2024-02-19T00:28:56.796Z,64.30
2024-02-19T00:31:25.996Z,67.70
2024-02-19T00:33:55.569Z,70.70
2024-02-19T00:36:23.874Z,66.75
2024-02-19T00:38:52.062Z,68.40
2024-02-19T00:41:20.842Z,60.72
2024-02-19T00:43:48.856Z,63.67
2024-02-19T00:46:17.056Z,61.92
2024-02-19T00:48:45.224Z,62.45
2024-02-19T00:51:14.745Z,68.63
2024-02-19T00:53:42.839Z,65.28
2024-02-19T00:56:10.799Z,69.03
2024-02-19T00:58:38.853Z,61.55
2024-02-19T01:01:15.272Z,60.75
2024-02-19T01:03:46.145Z,66.28
2024-02-19T01:06:15.738Z,66.60
2024-02-19T01:08:43.868Z,61.13
2024-02-19T01:11:12.813Z,58.40
2024-02-19T01:13:42.922Z,66.40
2024-02-19T01:16:11.084Z,67.88
2024-02-19T01:18:39.752Z,55.75
2024-02-19T01:21:08.045Z,55.10
2024-02-19T01:23:37.534Z,63.92
2024-02-19T01:26:05.753Z,67.15
2024-02-19T01:28:33.763Z,56.28
2024-02-19T01:31:01.825Z,61.30
2024-02-19T01:33:29.924Z,60.03
2024-02-19T01:35:57.916Z,68.68
2024-02-19T01:38:25.952Z,59.45
2024-02-19T01:40:55.387Z,65.05
2024-02-19T01:43:25.783Z,56.15
2024-02-19T01:45:54.226Z,54.70
2024-02-19T01:48:23.114Z,54.47
2024-02-19T01:50:51.812Z,62.40
2024-02-19T01:53:20.101Z,56.88
2024-02-19T01:55:50.595Z,61.45
2024-02-19T01:58:20.635Z,64.18
2024-02-19T02:00:49.434Z,58.28
2024-02-19T02:03:20.650Z,55.60
2024-02-19T02:05:51.988Z,55.63
2024-02-19T02:08:20.196Z,54.60
2024-02-19T02:10:48.207Z,62.53
2024-02-19T02:13:17.536Z,55.40
2024-02-19T02:15:47.267Z,51.75
2024-02-19T02:18:16.896Z,58.42
2024-02-19T02:20:45.959Z,56.28
2024-02-19T02:23:16.049Z,52.83
2024-02-19T02:25:44.267Z,56.28
2024-02-19T02:28:13.735Z,58.00
2024-02-19T02:30:41.856Z,58.90
2024-02-19T02:33:12.040Z,54.17
2024-02-19T02:35:40.171Z,53.50
2024-02-19T02:38:08.446Z,50.22
2024-02-19T02:40:36.835Z,52.67
2024-02-19T02:43:05.400Z,50.83
2024-02-19T02:45:35.166Z,51.15
2024-02-19T02:48:03.334Z,54.22
2024-02-19T02:50:31.386Z,50.67
2024-02-19T02:52:59.372Z,51.40
2024-02-19T02:55:27.391Z,55.50
2024-02-19T02:57:55.724Z,50.65
2024-02-19T03:00:24.013Z,51.75
2024-02-19T03:02:53.380Z,51.60
2024-02-19T03:05:21.416Z,53.28
2024-02-19T03:07:49.595Z,52.38
2024-02-19T03:10:18.923Z,52.15
2024-02-19T03:12:47.133Z,52.67
2024-02-19T03:15:15.333Z,52.97
2024-02-19T03:17:43.438Z,50.95
2024-02-19T03:20:15.042Z,50.38
2024-02-19T03:22:44.254Z,51.83
2024-02-19T03:25:12.543Z,53.58
2024-02-19T03:27:41.425Z,52.67
2024-02-19T03:30:10.822Z,51.33
2024-02-19T03:32:39.443Z,53.90
2024-02-19T03:35:07.762Z,54.53
2024-02-19T03:37:37.471Z,53.47
2024-02-19T03:40:08.031Z,53.88
2024-02-19T03:42:38.039Z,54.92
2024-02-19T03:45:06.919Z,56.08
2024-02-19T03:47:35.575Z,54.88
2024-02-19T03:50:03.958Z,55.28
2024-02-19T03:52:32.197Z,56.65
2024-02-19T03:55:01.837Z,54.00
2024-02-19T03:57:30.256Z,55.63
2024-02-19T03:59:58.280Z,54.55
2024-02-19T04:02:26.294Z,54.67
2024-02-19T04:04:54.497Z,54.08
2024-02-19T04:07:22.525Z,53.35
2024-02-19T04:09:50.564Z,54.28
2024-02-19T04:12:20.203Z,54.05
2024-02-19T04:14:48.318Z,52.97
2024-02-19T04:17:16.367Z,51.85
2024-02-19T04:19:44.655Z,52.60
2024-02-19T04:22:12.897Z,53.72
2024-02-19T04:24:41.097Z,53.38
2024-02-19T04:27:09.864Z,54.08
2024-02-19T04:29:39.267Z,54.88
2024-02-19T04:32:07.759Z,54.30
2024-02-19T04:34:39.260Z,53.65
2024-02-19T04:37:09.296Z,54.60
2024-02-19T04:39:38.045Z,56.35
2024-02-19T04:42:06.791Z,57.90
2024-02-19T04:44:35.057Z,57.53
2024-02-19T04:47:04.874Z,55.63
2024-02-19T04:49:33.142Z,55.90
2024-02-19T04:52:03.444Z,57.45
2024-02-19T04:54:31.466Z,57.13
2024-02-19T04:56:59.643Z,58.13
2024-02-19T04:59:27.693Z,52.47
2024-02-19T05:01:55.977Z,51.25
2024-02-19T05:04:27.590Z,49.45
2024-02-19T05:06:55.843Z,51.28
2024-02-19T05:09:23.984Z,51.88
2024-02-19T05:11:52.002Z,49.25
2024-02-19T05:14:20.309Z,51.42
2024-02-19T05:16:48.393Z,51.10
2024-02-19T05:19:16.534Z,50.33
2024-02-19T05:21:46.058Z,50.67
2024-02-19T05:24:15.084Z,50.25
2024-02-19T05:26:43.060Z,48.17
2024-02-19T05:29:11.234Z,48.90
2024-02-19T05:31:40.931Z,49.83
2024-02-19T05:34:09.702Z,49.10
2024-02-19T05:36:37.883Z,53.00
2024-02-19T05:39:11.547Z,49.75
2024-02-19T05:41:40.087Z,47.58
2024-02-19T05:44:08.165Z,49.15
2024-02-19T05:46:36.890Z,49.83
2024-02-19T05:49:05.121Z,50.38
2024-02-19T05:51:33.257Z,51.30
2024-02-19T05:54:01.257Z,52.53
2024-02-19T05:56:30.973Z,51.20
2024-02-19T05:58:59.098Z,51.63
2024-02-19T06:01:27.492Z,49.70
2024-02-19T06:03:55.657Z,52.38
2024-02-19T06:06:23.903Z,50.28
2024-02-19T06:08:52.085Z,47.40
2024-02-19T06:11:22.139Z,48.50
2024-02-19T06:13:54.939Z,48.75
2024-02-19T06:16:31.119Z,48.72
2024-02-19T06:19:02.542Z,50.45
2024-02-19T06:21:30.659Z,50.13
2024-02-19T06:23:58.828Z,49.25
2024-02-19T06:26:27.702Z,47.08
2024-02-19T06:28:57.307Z,48.72
2024-02-19T06:31:28.691Z,49.30
2024-02-19T06:33:57.462Z,54.55
2024-02-19T06:36:25.647Z,49.17
2024-02-19T06:38:53.651Z,52.13
2024-02-19T06:41:21.684Z,49.53
2024-02-19T06:43:49.946Z,48.45
2024-02-19T06:46:19.514Z,51.75
2024-02-19T06:48:50.378Z,56.28
2024-02-19T06:51:19.685Z,52.25
2024-02-19T06:53:50.164Z,49.53
2024-02-19T06:56:18.216Z,50.55
2024-02-19T06:58:46.289Z,48.58
2024-02-19T07:01:15.859Z,54.17
2024-02-19T07:03:45.894Z,51.42
2024-02-19T07:06:14.008Z,53.40
2024-02-19T07:08:42.196Z,51.45
2024-02-19T07:11:10.458Z,52.97
2024-02-19T07:13:38.869Z,51.88
2024-02-19T07:16:07.413Z,52.58
2024-02-19T07:18:35.873Z,51.28
2024-02-19T07:21:05.591Z,56.90
2024-02-19T07:23:34.164Z,50.08
2024-02-19T07:26:02.551Z,49.08
2024-02-19T07:28:30.841Z,57.28
2024-02-19T07:30:59.082Z,54.35
2024-02-19T07:33:29.874Z,52.90
2024-02-19T07:35:57.921Z,52.15
2024-02-19T07:38:27.468Z,49.95
2024-02-19T07:40:55.501Z,53.85
2024-02-19T07:43:23.758Z,56.83
2024-02-19T07:45:51.838Z,50.90
2024-02-19T07:48:19.967Z,54.53
2024-02-19T07:50:48.262Z,48.95
2024-02-19T07:53:18.002Z,50.40
2024-02-19T07:55:47.921Z,48.00
2024-02-19T07:58:18.307Z,49.17
2024-02-19T08:00:46.654Z,51.05
2024-02-19T08:03:14.814Z,50.15
2024-02-19T08:05:42.849Z,54.75
2024-02-19T08:08:10.936Z,48.75
2024-02-19T08:10:39.277Z,45.63
2024-02-19T08:13:10.169Z,47.40
2024-02-19T08:15:40.293Z,51.70
2024-02-19T08:18:09.195Z,48.50
2024-02-19T08:20:39.162Z,50.55
2024-02-19T08:23:07.573Z,54.55
2024-02-19T08:25:36.165Z,45.47
2024-02-19T08:28:05.028Z,48.65
2024-02-19T08:30:34.733Z,46.83
2024-02-19T08:33:03.068Z,45.60
2024-02-19T08:35:31.698Z,50.92
2024-02-19T08:38:00.705Z,49.38
2024-02-19T08:40:28.864Z,43.58
2024-02-19T08:42:56.954Z,44.42
2024-02-19T08:45:28.902Z,42.97
2024-02-19T08:48:02.078Z,45.85
2024-02-19T08:50:30.136Z,47.05
2024-02-19T08:52:58.134Z,50.65
2024-02-19T08:55:26.267Z,43.83
2024-02-19T08:57:55.906Z,45.42
2024-02-19T09:00:24.865Z,46.10
2024-02-19T09:02:53.495Z,44.50
2024-02-19T09:05:24.226Z,47.92
2024-02-19T09:07:52.276Z,47.30
2024-02-19T09:10:20.463Z,43.47
2024-02-19T09:12:48.469Z,44.17
2024-02-19T09:15:16.557Z,43.65
2024-02-19T09:17:44.574Z,47.28
2024-02-19T09:20:13.454Z,45.65
2024-02-19T09:22:44.415Z,44.72
2024-02-19T09:25:13.802Z,45.88
2024-02-19T09:27:41.963Z,46.15
2024-02-19T09:30:10.843Z,46.90
2024-02-19T09:32:39.195Z,45.00
2024-02-19T09:35:07.986Z,44.72
2024-02-19T09:37:36.197Z,43.50
2024-02-19T09:40:08.067Z,43.25
2024-02-19T09:42:37.660Z,44.38
2024-02-19T09:45:07.649Z,42.53
2024-02-19T09:47:36.031Z,44.88
2024-02-19T09:50:05.462Z,44.03
2024-02-19T09:52:33.732Z,42.92
2024-02-19T09:55:02.206Z,43.45
2024-02-19T09:57:31.778Z,44.20
2024-02-19T10:00:04.919Z,42.33
2024-02-19T10:02:33.033Z,41.70
2024-02-19T10:05:01.713Z,44.30
2024-02-19T10:07:33.820Z,41.97
2024-02-19T10:10:02.772Z,43.58
2024-02-19T10:12:32.469Z,42.28
2024-02-19T10:15:01.901Z,42.83
2024-02-19T10:17:30.876Z,42.75
2024-02-19T10:20:03.241Z,44.47
2024-02-19T10:22:31.402Z,45.10
2024-02-19T10:24:59.551Z,43.13
2024-02-19T10:27:32.763Z,43.90
2024-02-19T10:30:01.940Z,43.03
2024-02-19T10:32:30.378Z,43.13
2024-02-19T10:34:58.791Z,43.80
2024-02-19T10:37:27.053Z,45.70
2024-02-19T10:39:55.233Z,44.10
2024-02-19T10:42:24.314Z,43.28
2024-02-19T10:44:55.089Z,44.58
2024-02-19T10:47:24.950Z,43.95
2024-02-19T10:50:00.120Z,44.35
2024-02-19T10:52:28.906Z,42.80
2024-02-19T10:55:05.931Z,46.85
2024-02-19T10:57:48.555Z,44.65
2024-02-19T11:00:18.784Z,44.33
2024-02-19T11:02:48.445Z,45.13
2024-02-19T11:05:16.523Z,48.33
2024-02-19T11:07:44.753Z,46.50
2024-02-19T11:10:12.896Z,47.92
2024-02-19T11:12:43.136Z,46.10
2024-02-19T11:15:19.619Z,48.75
2024-02-19T11:17:50.090Z,43.53
2024-02-19T11:20:26.927Z,47.78
2024-02-19T11:23:00.123Z,46.95
2024-02-19T11:25:28.523Z,47.78
2024-02-19T11:27:56.709Z,45.72
2024-02-19T11:30:27.050Z,50.47
2024-02-19T11:33:02.190Z,45.88
2024-02-19T11:35:32.724Z,47.10
2024-02-19T11:38:02.554Z,45.53
2024-02-19T11:40:33.751Z,51.00
2024-02-19T11:43:03.152Z,51.35
2024-02-19T11:45:35.308Z,45.90
2024-02-19T11:48:04.059Z,49.72
2024-02-19T11:50:33.292Z,52.40
2024-02-19T11:53:02.037Z,46.03
2024-02-19T11:55:31.568Z,48.97
2024-02-19T11:58:02.271Z,51.83
2024-02-19T12:00:33.731Z,52.28
2024-02-19T12:03:03.907Z,48.85
2024-02-19T12:05:32.376Z,49.92
2024-02-19T12:08:00.779Z,48.55
2024-02-19T12:10:29.234Z,50.50
2024-02-19T12:12:58.854Z,49.65
2024-02-19T12:15:27.109Z,47.45
2024-02-19T12:17:56.895Z,57.63
2024-02-19T12:20:25.123Z,48.88
2024-02-19T12:22:53.385Z,49.53
2024-02-19T12:25:21.955Z,49.38
2024-02-19T12:27:50.119Z,48.28
2024-02-19T12:30:18.529Z,49.22
2024-02-19T12:32:48.571Z,48.55
2024-02-19T12:35:20.893Z,50.28
2024-02-19T12:37:49.210Z,48.50
2024-02-19T12:40:17.645Z,47.58
2024-02-19T12:42:46.429Z,44.85
2024-02-19T12:45:14.816Z,46.97
2024-02-19T12:47:43.003Z,49.58
2024-02-19T12:50:13.098Z,50.38
2024-02-19T12:52:42.828Z,46.95
2024-02-19T12:55:14.861Z,45.28
2024-02-19T12:57:46.704Z,45.10
2024-02-19T13:00:15.373Z,50.05
2024-02-19T13:02:43.524Z,48.03
2024-02-19T13:05:11.710Z,51.33
2024-02-19T13:07:40.796Z,44.75
2024-02-19T13:10:10.977Z,44.28
2024-02-19T13:12:40.453Z,47.53
2024-02-19T13:15:09.367Z,47.80
2024-02-19T13:17:43.107Z,45.13
2024-02-19T13:20:16.106Z,44.30
2024-02-19T13:22:45.220Z,45.70
2024-02-19T13:25:17.349Z,51.08
2024-02-19T13:27:46.322Z,49.20
2024-02-19T13:30:15.246Z,45.13
2024-02-19T13:32:47.763Z,48.00
2024-02-19T13:35:16.400Z,48.65
2024-02-19T13:37:44.536Z,46.63
2024-02-19T13:40:15.123Z,46.28
2024-02-19T13:42:45.063Z,45.67
2024-02-19T13:45:13.369Z,49.78
2024-02-19T13:47:41.771Z,45.00
2024-02-19T13:50:12.374Z,46.95
2024-02-19T13:52:40.695Z,44.90
2024-02-19T13:55:09.848Z,42.88
2024-02-19T13:57:39.610Z,45.45
2024-02-19T14:00:11.987Z,46.00
2024-02-19T14:02:41.885Z,42.95
2024-02-19T14:05:10.593Z,49.67
2024-02-19T14:07:39.580Z,47.33
2024-02-19T14:10:09.220Z,44.60
2024-02-19T14:12:37.669Z,48.75
2024-02-19T14:15:08.252Z,49.08
2024-02-19T14:17:36.920Z,47.20
2024-02-19T14:20:06.850Z,43.65
2024-02-19T14:22:36.487Z,46.08
2024-02-19T14:25:04.982Z,43.35
2024-02-19T14:27:33.589Z,47.80
2024-02-19T14:30:01.924Z,43.13
2024-02-19T14:32:33.901Z,48.33
2024-02-19T14:35:01.965Z,41.38
2024-02-19T14:37:30.281Z,45.08
2024-02-19T14:39:58.493Z,43.50
2024-02-19T14:42:29.108Z,49.00
2024-02-19T14:44:57.275Z,46.33
2024-02-19T14:47:25.505Z,43.38
2024-02-19T14:49:55.200Z,47.72
2024-02-19T14:52:23.885Z,43.83
2024-02-19T14:54:54.736Z,47.35
2024-02-19T14:57:23.133Z,45.70
2024-02-19T14:59:52.608Z,49.03
2024-02-19T15:02:20.933Z,42.72
2024-02-19T15:04:49.184Z,47.60
2024-02-19T15:07:19.170Z,48.78
2024-02-19T15:09:47.369Z,46.75
2024-02-19T15:12:15.416Z,45.30
2024-02-19T15:14:43.615Z,49.22
2024-02-19T15:17:12.276Z,44.95
2024-02-19T15:19:40.680Z,45.10
2024-02-19T15:22:08.877Z,46.67
2024-02-19T15:24:38.714Z,46.67
2024-02-19T15:27:06.963Z,47.83
2024-02-19T15:29:35.051Z,43.42
2024-02-19T15:32:03.503Z,44.90
2024-02-19T15:34:31.903Z,51.05
2024-02-19T15:37:00.099Z,49.80
2024-02-19T15:39:28.151Z,48.05
2024-02-19T15:41:57.472Z,47.70
2024-02-19T15:44:25.654Z,47.22
2024-02-19T15:46:53.894Z,45.72
2024-02-19T15:49:22.531Z,49.35
2024-02-19T15:51:51.016Z,45.83
2024-02-19T15:54:20.405Z,47.45
2024-02-19T15:56:48.687Z,49.50
2024-02-19T15:59:18.422Z,41.67
2024-02-19T16:01:46.886Z,45.97
2024-02-19T16:04:15.814Z,42.80
2024-02-19T16:06:45.092Z,45.42
2024-02-19T16:09:14.559Z,48.70
2024-02-19T16:11:42.682Z,45.80
2024-02-19T16:14:10.745Z,45.97
2024-02-19T16:16:40.513Z,40.90
2024-02-19T16:19:08.683Z,46.58
2024-02-19T16:21:37.804Z,42.00
2024-02-19T16:24:07.211Z,47.53
2024-02-19T16:26:35.315Z,41.10
2024-02-19T16:29:03.628Z,48.17
2024-02-19T16:31:33.103Z,42.28
2024-02-19T16:34:03.049Z,40.50
2024-02-19T16:36:31.349Z,40.25
2024-02-19T16:38:59.468Z,47.47
2024-02-19T16:41:27.561Z,40.58
2024-02-19T16:43:55.622Z,46.10
2024-02-19T16:46:25.234Z,45.33
2024-02-19T16:48:53.669Z,41.25
2024-02-19T16:51:23.477Z,43.05
2024-02-19T16:53:55.405Z,46.10
2024-02-19T16:56:27.827Z,43.25
2024-02-19T16:58:56.170Z,46.70
2024-02-19T17:01:24.410Z,40.75
2024-02-19T17:03:52.655Z,46.50
2024-02-19T17:06:24.390Z,41.55
2024-02-19T17:08:52.535Z,45.05
2024-02-19T17:11:22.693Z,50.40
2024-02-19T17:13:51.154Z,47.28
2024-02-19T17:16:19.875Z,48.25
2024-02-19T17:18:48.059Z,49.25
2024-02-19T17:21:16.075Z,46.53
2024-02-19T17:23:47.970Z,43.28
2024-02-19T17:26:16.248Z,52.42
2024-02-19T17:28:44.320Z,49.45
2024-02-19T17:31:13.010Z,44.58
2024-02-19T17:33:41.399Z,51.38
2024-02-19T17:36:09.876Z,52.63
2024-02-19T17:38:37.931Z,51.45
2024-02-19T17:41:07.756Z,48.35
2024-02-19T17:43:35.806Z,47.90
2024-02-19T17:46:04.776Z,49.20
2024-02-19T17:48:33.434Z,44.85
2024-02-19T17:51:02.482Z,52.42
2024-02-19T17:53:30.600Z,45.28
2024-02-19T17:56:00.579Z,48.95
2024-02-19T17:58:30.216Z,54.28
2024-02-19T18:00:58.394Z,51.10
2024-02-19T18:03:26.949Z,47.40
2024-02-19T18:05:56.082Z,53.22
2024-02-19T18:08:24.152Z,45.40
2024-02-19T18:10:52.285Z,45.58
2024-02-19T18:13:22.578Z,48.72
2024-02-19T18:15:52.358Z,50.30
2024-02-19T18:18:20.454Z,46.45
2024-02-19T18:20:49.451Z,53.08
2024-02-19T18:23:17.581Z,46.72
2024-02-19T18:25:45.643Z,49.60
2024-02-19T18:28:13.695Z,45.80
2024-02-19T18:30:41.775Z,44.28
2024-02-19T18:33:11.515Z,46.63
2024-02-19T18:35:42.054Z,49.15
2024-02-19T18:38:11.456Z,43.78
2024-02-19T18:40:39.555Z,45.05
2024-02-19T18:43:07.669Z,51.92
2024-02-19T18:45:36.508Z,48.25
2024-02-19T18:48:05.058Z,49.30
2024-02-19T18:50:34.661Z,61.05
2024-02-19T18:53:03.782Z,55.72
2024-02-19T18:55:33.038Z,52.95
2024-02-19T18:58:03.202Z,52.83
2024-02-19T19:00:32.129Z,51.05
2024-02-19T19:03:01.086Z,53.75
2024-02-19T19:05:29.218Z,52.72
2024-02-19T19:07:59.227Z,53.60
2024-02-19T19:10:27.241Z,49.88
2024-02-19T19:12:55.422Z,52.80
2024-02-19T19:15:23.795Z,48.03
2024-02-19T19:17:52.440Z,55.88
2024-02-19T19:20:20.735Z,47.80
2024-02-19T19:22:49.029Z,50.15
2024-02-19T19:25:19.661Z,51.75
2024-02-19T19:27:47.752Z,49.47
2024-02-19T19:30:16.136Z,46.70
2024-02-19T19:32:44.139Z,50.88
2024-02-19T19:35:13.906Z,48.92
2024-02-19T19:37:43.086Z,55.10
2024-02-19T19:40:11.789Z,51.13
2024-02-19T19:42:47.048Z,46.92
2024-02-19T19:45:15.629Z,53.40
2024-02-19T19:47:44.096Z,52.25
2024-02-19T19:50:12.338Z,45.13
2024-02-19T19:52:40.434Z,53.35
2024-02-19T19:55:09.356Z,52.63
2024-02-19T19:57:37.618Z,49.42
2024-02-19T20:00:08.823Z,49.42
2024-02-19T20:02:40.084Z,52.55
2024-02-19T20:05:11.708Z,53.17
2024-02-19T20:07:40.020Z,48.47
2024-02-19T20:10:11.512Z,58.08
2024-02-19T20:12:40.905Z,53.58
2024-02-19T20:15:12.108Z,48.53
2024-02-19T20:17:40.203Z,52.10
2024-02-19T20:20:09.619Z,55.92
2024-02-19T20:22:37.834Z,57.15
2024-02-19T20:25:06.577Z,59.38
2024-02-19T20:27:34.785Z,55.45
2024-02-19T20:30:02.912Z,46.95
2024-02-19T20:32:32.381Z,56.17
2024-02-19T20:35:00.560Z,52.10
2024-02-19T20:37:28.660Z,55.42
2024-02-19T20:40:02.136Z,60.80
2024-02-19T20:42:30.537Z,58.22
2024-02-19T20:44:58.542Z,49.70
2024-02-19T20:47:26.636Z,56.25
2024-02-19T20:49:57.559Z,53.63
2024-02-19T20:52:27.248Z,50.65
2024-02-19T20:54:56.260Z,62.30
2024-02-19T20:57:26.053Z,54.47
2024-02-19T20:59:54.287Z,55.30
2024-02-19T21:02:22.376Z,56.08
2024-02-19T21:04:50.913Z,59.38
2024-02-19T21:07:23.321Z,52.55
2024-02-19T21:09:51.504Z,50.72
2024-02-19T21:12:19.589Z,56.83
2024-02-19T21:14:47.691Z,58.75
2024-02-19T21:17:15.646Z,56.42
2024-02-19T21:19:43.788Z,50.80
2024-02-19T21:22:12.438Z,59.35
2024-02-19T21:24:41.988Z,55.17
2024-02-19T21:27:10.171Z,56.40
2024-02-19T21:29:39.036Z,64.40
2024-02-19T21:32:07.960Z,54.08
2024-02-19T21:34:38.243Z,58.10
2024-02-19T21:37:08.054Z,51.90
2024-02-19T21:39:36.368Z,62.78
2024-02-19T21:42:07.222Z,59.53
2024-02-19T21:44:35.391Z,65.35
2024-02-19T21:47:04.351Z,64.68
2024-02-19T21:49:32.428Z,59.47
2024-02-19T21:52:00.740Z,53.20
2024-02-19T21:54:28.749Z,64.55
2024-02-19T21:56:56.902Z,58.05
2024-02-19T21:59:26.566Z,59.40
2024-02-19T22:01:54.692Z,57.45
2024-02-19T22:04:22.876Z,56.67
2024-02-19T22:06:51.028Z,61.63
2024-02-19T22:09:19.091Z,56.67
2024-02-19T22:11:47.218Z,57.72
2024-02-19T22:14:15.729Z,60.28
2024-02-19T22:16:45.265Z,60.67
2024-02-19T22:19:13.532Z,56.00
2024-02-19T22:21:41.664Z,61.17
2024-02-19T22:24:10.142Z,62.03
2024-02-19T22:26:38.124Z,59.25
2024-02-19T22:29:06.135Z,58.78
2024-02-19T22:31:37.110Z,51.20
2024-02-19T22:34:06.834Z,59.85
2024-02-19T22:36:35.074Z,66.00
2024-02-19T22:39:03.778Z,63.30
2024-02-19T22:41:31.908Z,66.55
2024-02-19T22:44:00.709Z,65.97
2024-02-19T22:46:28.902Z,74.93
2024-02-19T22:48:58.042Z,65.45
2024-02-19T22:51:27.638Z,58.10
2024-02-19T22:53:55.950Z,61.63
2024-02-19T22:56:24.119Z,60.13
2024-02-19T22:58:54.977Z,63.65
2024-02-19T23:01:27.693Z,61.38
2024-02-19T23:03:56.365Z,68.75
2024-02-19T23:06:24.437Z,65.63
2024-02-19T23:08:53.893Z,65.90
2024-02-19T23:11:22.070Z,64.30
2024-02-19T23:13:52.061Z,58.13
2024-02-19T23:16:20.163Z,64.22
2024-02-19T23:18:48.194Z,67.43
2024-02-19T23:21:17.478Z,68.53
2024-02-19T23:23:45.684Z,60.30
2024-02-19T23:26:15.524Z,62.28
2024-02-19T23:28:44.076Z,58.63
2024-02-19T23:31:12.201Z,63.15
2024-02-19T23:33:42.268Z,64.95
2024-02-19T23:36:16.867Z,68.75
2024-02-19T23:38:45.423Z,71.00
2024-02-19T23:41:15.134Z,64.40
2024-02-19T23:43:44.899Z,57.83
2024-02-19T23:46:15.012Z,64.53
2024-02-19T23:48:43.690Z,66.63
2024-02-19T23:51:13.145Z,62.75
2024-02-19T23:53:42.730Z,60.92
2024-02-19T23:56:10.742Z,63.08
2024-02-19T23:58:40.361Z,57.95
